Latest Coastal Weather Observations for Taree Airport

IDN60701

Issued at 10:41 am EST Monday 3 August 2015 (issued every 10 minutes, with the page automatically refreshed every 10 minutes)

About coastal observations | Map of coastal stations | Coastal observations for NSW | Marine services | Other Formats
Station Details ID: 060141 Name: TAREE AIRPORT AWS Lat: -31.89 Lon: 152.51 Height: 8.0 m
Data from the previous 72 hours. | See also: Recent months at Taree Airport
Date/Time
EST
Temp

°C
Wind Pressure Rain
since 9am
mm
Weather Cloud Vis
km
Sea
Height
m
Swell
Dir
 
Speed
knots
Gust
knots
hPa Trend Height
m
Period
s
Dir
03/10:30am 21.5 NW 4 7 1014.6 - 0.0 - - 10 - - - -
03/10:00am 20.8 WNW 1 4 1014.9 - 0.0 - - 10 - - - -
03/09:30am 19.3 WNW 1 4 1014.8 - 0.0 - - 10 - - - -
03/09:00am 17.6 SSW 1 5 1014.7 - 0.0 - - 10 - - - -
03/08:30am 17.2 CALM 0 0 1014.5 - 0.0 - - 10 - - - -
03/08:00am 14.0 CALM 0 0 1014.1 - 0.0 - - 10 - - - -
03/07:30am 10.2 N 2 5 1013.8 - 0.0 - - 10 - - - -
03/07:00am 8.9 NNE 1 5 1013.5 - 0.0 - - 10 - - - -
03/06:30am 10.2 WNW 2 5 1013.2 - 0.0 - - 10 - - - -
03/06:00am 9.7 CALM 0 0 1012.9 - 0.0 - - 10 - - - -
03/05:30am 11.1 CALM 0 4 1012.6 - 0.0 - - 10 - - - -
03/05:00am 11.0 CALM 0 0 1012.4 - 0.0 - - 10 - - - -
03/04:30am 11.0 CALM 0 0 1012.1 - 0.0 - - 10 - - - -
03/04:00am 10.2 CALM 0 0 1012.0 - 0.0 - - 10 - - - -
03/03:30am 11.4 CALM 0 0 1011.8 - 0.0 - - 10 - - - -
03/03:00am 12.6 CALM 0 2 1011.8 - 0.0 - - 10 - - - -
03/02:30am 10.8 CALM 0 0 1011.9 - 0.0 - - 10 - - - -
03/02:00am 11.8 CALM 0 4 1012.0 - 0.0 - - 10 - - - -
03/01:30am 13.2 N 4 6 1012.2 - 0.0 - - 10 - - - -
03/01:00am 13.2 NNW 2 5 1012.6 - 0.0 - - 10 - - - -
03/12:30am 13.2 CALM 0 0 1012.8 - 0.0 - - 10 - - - -
03/12:00am 16.7 N 3 5 1013.0 - 0.0 - - 10 - - - -
 
Date/Time
EST
Temp

°C
Wind Pressure Rain
since 9am
mm
Weather Cloud Vis
km
Sea
Height
m
Swell
Dir
 
Speed
knots
Gust
knots
hPa Trend Height
m
Period
s
Dir
02/11:30pm 17.6 NNW 5 8 1013.4 - 0.0 - - 10 - - - -
02/11:00pm 18.4 NNW 6 10 1013.6 - 0.0 - - 10 - - - -
02/10:30pm 20.1 NNW 9 12 1013.8 - 0.0 - - 10 - - - -
02/10:00pm 16.6 NNW 6 9 1013.8 - 0.0 - - 10 - - - -
02/09:51pm 15.8 NNW 6 8 1013.8 - 0.0 - - 10 - - - -
02/09:30pm 21.2 NNW 3 7 1013.9 - 0.0 - - 10 - - - -
02/09:00pm 19.0 CALM 0 0 1013.8 - 0.0 - - 10 - - - -
02/08:30pm 16.6 N 5 6 1013.7 - 0.0 - - 10 - - - -
02/08:00pm 19.7 NNW 2 5 1013.8 - 0.0 - - 10 - - - -
02/07:30pm 19.6 NNW 4 6 1013.6 - 0.0 - - 10 - - - -
02/07:00pm 19.3 N 5 8 1013.4 - 0.0 - - 10 - - - -
02/06:30pm 21.7 NNW 3 6 1013.3 - 0.0 - - 10 - - - -
02/06:00pm 23.7 NW 4 6 1013.1 - 0.0 - - 10 - - - -
02/05:30pm 23.9 CALM 0 4 1012.5 - 0.0 - - 10 - - - -
02/05:00pm 25.5 NNW 3 13 1012.3 - 0.0 - - 10 - - - -
02/04:30pm 24.0 ESE 4 7 1012.1 - 0.0 - - 10 - - - -
02/04:00pm 25.1 ESE 3 7 1011.9 - 0.0 - - 10 - - - -
02/03:30pm 25.6 SE 6 8 1012.0 - 0.0 - - 10 - - - -
02/03:00pm 27.7 NW 1 4 1012.1 - 0.0 - - 10 - - - -
02/02:30pm 27.9 NW 3 8 1012.1 - 0.0 - - 10 - - - -
02/02:00pm 27.2 NE 3 7 1012.3 - 0.0 - - 10 - - - -
02/01:30pm 25.2 ESE 4 6 1012.6 - 0.0 - - 10 - - - -
02/01:00pm 25.2 ESE 4 6 1013.0 - 0.0 - - 10 - - - -
02/12:30pm 24.1 ESE 1 5 1013.8 - 0.0 - - 10 - - - -
02/12:00pm 22.1 S 4 6 1014.7 - 0.0 - - 10 - - - -
02/11:30am 21.2 ESE 1 3 1015.3 - 0.0 - - 10 - - - -
02/11:00am 20.0 CALM 0 0 1015.9 - 0.0 - - 10 - - - -
02/10:30am 20.0 SSW 1 4 1016.3 - 0.0 - - 10 - - - -
02/10:00am 17.2 NW 1 4 1016.8 - 0.0 - - 10 - - - -
02/09:30am 14.9 W 4 5 1017.0 - 0.0 - - 10 - - - -
02/09:00am 14.9 NW 1 4 1016.9 - 0.2 - - 10 - - - -
02/08:30am 13.4 SW 1 4 1017.0 - 0.2 - - 10 - - - -
02/08:00am 11.6 CALM 0 0 1017.1 - 0.2 - - 10 - - - -
02/07:30am 10.9 CALM 0 0 1017.1 - 0.2 - - 10 - - - -
02/07:00am 9.9 CALM 0 0 1016.9 - 0.2 - - 10 - - - -
02/06:30am 10.5 WSW 4 8 1016.8 - 0.2 - - 10 - - - -
02/06:00am 11.1 NNW 3 4 1016.7 - 0.2 - Mostly cloudy 10 - - - -
02/05:30am 9.7 NNE 4 5 1016.9 - 0.2 - - 10 - - - -
02/05:00am 10.8 N 1 5 1016.7 - 0.2 - - 10 - - - -
02/04:30am 10.6 CALM 0 0 1016.8 - 0.2 - - 10 - - - -
02/04:00am 9.9 NNW 3 5 1017.0 - 0.2 - - 10 - - - -
02/03:30am 11.1 WSW 3 5 1017.0 - 0.2 - - 10 - - - -
02/03:00am 12.5 WNW 3 4 1017.2 - 0.2 - Mostly cloudy 10 - - - -
02/02:30am 11.6 NW 4 5 1017.5 - 0.2 - Partly cloudy 10 - - - -
02/02:00am 11.8 WSW 7 10 1017.6 - 0.2 - Cloudy 10 - - - -
02/01:30am 11.1 CALM 0 0 1017.8 - 0.2 - - 10 - - - -
02/01:00am 11.2 WNW 2 4 1018.1 - 0.2 - - 10 - - - -
02/12:30am 11.5 W 4 6 1018.6 - 0.2 - - 10 - - - -
02/12:00am 10.0 SSW 1 5 1018.7 - 0.2 - Partly cloudy 10 - - - -
 
Date/Time
EST
Temp

°C
Wind Pressure Rain
since 9am
mm
Weather Cloud Vis
km
Sea
Height
m
Swell
Dir
 
Speed
knots
Gust
knots
hPa Trend Height
m
Period
s
Dir
01/11:30pm 9.7 NW 1 4 1018.7 - 0.2 - - 10 - - - -
01/11:00pm 10.8 WSW 4 7 1019.0 - 0.2 - - 10 - - - -
01/10:30pm 10.8 CALM 0 0 1019.2 - 0.2 - - 10 - - - -
01/10:00pm 11.2 CALM 0 0 1019.1 - 0.2 - - 10 - - - -
01/09:30pm 12.1 CALM 0 0 1019.2 - 0.2 - - 10 - - - -
01/09:00pm 12.6 WSW 4 5 1019.3 - 0.2 - - 10 - - - -
01/08:30pm 13.0 SW 4 6 1018.8 - 0.2 - - 10 - - - -
01/08:00pm 14.1 CALM 0 0 1018.6 - 0.2 - - 10 - - - -
01/07:30pm 14.0 CALM 0 0 1018.7 - 0.2 - - 10 - - - -
01/07:00pm 16.1 CALM 0 0 1018.4 - 0.2 - - 10 - - - -
01/06:30pm 15.5 CALM 0 0 1018.1 - 0.2 - - 10 - - - -
01/06:00pm 15.8 CALM 0 0 1017.9 - 0.2 - - 10 - - - -
01/05:30pm 17.8 CALM 0 0 1017.4 - 0.2 - - 10 - - - -
01/05:00pm 19.4 CALM 0 2 1017.2 - 0.2 - - 10 - - - -
01/04:30pm 20.9 NE 5 8 1017.2 - 0.2 - - 10 - - - -
01/04:00pm 21.6 NE 7 9 1017.1 - 0.2 - - 10 - - - -
01/03:30pm 23.1 NNE 4 7 1017.1 - 0.2 - - 10 - - - -
01/03:00pm 23.2 NE 5 8 1017.1 - 0.2 - - 10 - - - -
01/02:30pm 23.2 N 6 10 1016.8 - 0.2 - - 10 - - - -
01/02:00pm 23.2 N 5 9 1017.1 - 0.2 - - 10 - - - -
01/01:30pm 23.3 NNW 5 6 1017.5 - 0.2 - - 10 - - - -
01/01:00pm 22.6 NNW 6 8 1017.7 - 0.2 - - 10 - - - -
01/12:30pm 21.8 WNW 8 13 1018.4 - 0.2 - - 10 - - - -
01/12:00pm 20.7 WNW 4 7 1019.0 - 0.2 Recent precip. - 10 - - - -
01/11:30am 18.6 SSW 4 6 1019.7 - 0.2 - - 10 - - - -
01/11:00am 17.9 W 1 4 1020.1 - 0.0 - - 10 - - - -
01/10:30am 16.0 N 3 5 1020.4 - 0.0 - - 10 - - - -
01/10:00am 15.2 CALM 0 1 1020.7 - 0.0 - - 10 - - - -
01/09:30am 13.7 W 3 5 1021.0 - 0.0 - - 10 - - - -
01/09:00am 11.7 W 4 6 1020.9 - 0.0 - - 10 - - - -
01/08:30am 9.6 WSW 3 6 1020.8 - 0.0 - - 10 - - - -
01/08:00am 7.9 WNW 3 4 1020.6 - 0.0 - - 10 - - - -
01/07:33am 7.1 CALM 0 3 1020.5 - 0.0 - - 10 - - - -
01/07:30am 7.1 WNW 1 3 1020.5 - 0.0 - - 10 - - - -
01/07:14am 6.4 WNW 1 3 1020.5 - 0.0 - - 5 - - - -
01/07:01am 4.9 WNW 2 4 1020.7 - 0.0 - - 10 - - - -
01/07:00am 4.8 WNW 2 4 1020.7 - 0.0 - - 10 - - - -
01/06:48am 4.2 NW 2 4 1020.6 - 0.0 - - 1 - - - -
01/06:30am 5.4 W 2 5 1020.6 - 0.0 - - 0.8 - - - -
01/06:25am 5.1 CALM 0 0 1020.6 - 0.0 - - 3 - - - -
01/06:00am 4.6 CALM 0 0 1020.4 - 0.0 - - 10 - - - -
01/05:30am 4.4 CALM 0 0 1020.4 - 0.0 - - 10 - - - -
01/05:00am 4.6 CALM 0 0 1020.3 - 0.0 - - 10 - - - -
01/04:46am 5.3 CALM 0 0 1020.3 - 0.0 - - 10 - - - -
01/04:30am 5.9 CALM 0 0 1020.2 - 0.0 - - 5 - - - -
01/04:09am 6.1 CALM 0 0 1020.2 - 0.0 - - 5 - - - -
01/04:00am 5.8 CALM 0 0 1020.2 - 0.0 - - 10 - - - -
01/03:51am 5.7 CALM 0 0 1020.3 - 0.0 - - 10 - - - -
01/03:30am 6.0 CALM 0 0 1020.4 - 0.0 - - 5 - - - -
01/03:24am 6.3 CALM 0 0 1020.3 - 0.0 - - 5 - - - -
01/03:00am 6.0 CALM 0 0 1020.7 - 0.0 - - 10 - - - -
01/02:30am 5.8 CALM 0 0 1021.0 - 0.0 - - 10 - - - -
01/02:00am 5.8 CALM 0 0 1021.4 - 0.0 - - 10 - - - -
01/01:30am 6.7 CALM 0 0 1021.9 - 0.0 - - 10 - - - -
01/01:11am 6.1 CALM 0 0 1022.0 - 0.0 - - 5 - - - -
01/01:00am 6.8 CALM 0 0 1022.2 - 0.0 - - 10 - - - -
01/12:55am 6.6 CALM 0 0 1022.2 - 0.0 - - 10 - - - -
01/12:34am 7.8 CALM 0 0 1022.2 - 0.0 - - 3 - - - -
01/12:30am 7.9 CALM 0 0 1022.1 - 0.0 - - 10 - - - -
01/12:00am 8.0 CALM 0 0 1022.3 - 0.0 - - 10 - - - -
 
Date/Time
EST
Temp

°C
Wind Pressure Rain
since 9am
mm
Weather Cloud Vis
km
Sea
Height
m
Swell
Dir
 
Speed
knots
Gust
knots
hPa Trend Height
m
Period
s
Dir
31/11:33pm 8.2 W 3 5 1022.5 - 0.0 - - 10 - - - -
31/11:30pm 8.1 W 4 5 1022.5 - 0.0 - - 10 - - - -
31/11:12pm 8.4 CALM 0 0 1022.6 - 0.0 - - 5 - - - -
31/11:00pm 8.7 CALM 0 0 1022.5 - 0.0 - - 10 - - - -
31/10:39pm 8.3 W 1 3 1022.5 - 0.0 - - 10 - - - -
31/10:30pm 8.7 W 3 5 1022.5 - 0.0 - - 8 - - - -
31/10:15pm 9.0 CALM 0 0 1022.6 - 0.0 - - 5 - - - -
31/10:00pm 9.1 CALM 0 0 1022.5 - 0.0 - - 10 - - - -
31/09:30pm 9.4 CALM 0 0 1022.7 - 0.0 - - 10 - - - -
31/09:29pm 9.5 CALM 0 0 1022.6 - 0.0 - - 10 - - - -
31/09:10pm 9.5 CALM 0 0 1022.7 - 0.0 - - 5 - - - -
31/09:00pm 10.0 CALM 0 3 1022.5 - 0.0 - - 10 - - - -
31/08:38pm 10.9 NW 4 5 1022.3 - 0.0 - - 10 - - - -
31/08:30pm 11.0 W 4 4 1022.4 - 0.0 - - 10 - - - -
31/08:25pm 10.8 WSW 4 4 1022.3 - 0.0 - - 1 - - - -
31/08:20pm 10.5 W 3 4 1022.3 - 0.0 - - 0.9 - - - -
31/08:15pm 10.6 W 1 4 1022.4 - 0.0 - - 5 - - - -
31/08:00pm 11.7 W 5 5 1022.2 - 0.0 - - 10 - - - -
31/07:30pm 11.2 SW 3 5 1022.2 - 0.0 - - 10 - - - -
31/07:00pm 11.7 CALM 0 3 1021.7 - 0.0 - - 10 - - - -
31/06:30pm 12.5 N 4 4 1021.5 - 0.0 - - 10 - - - -
31/06:00pm 13.4 NNE 4 5 1021.1 - 0.0 - - 10 - - - -
31/05:30pm 14.1 NNE 3 4 1020.7 - 0.0 - - 10 - - - -
31/05:00pm 15.9 NE 4 5 1020.3 - 0.0 - - 10 - - - -
31/04:30pm 17.5 E 5 6 1019.9 - 0.0 - - 10 - - - -
31/04:00pm 18.0 ESE 7 10 1019.8 - 0.0 - - 10 - - - -
31/03:30pm 18.0 SE 10 14 1019.7 - 0.0 - - 10 - - - -
31/03:00pm 18.6 SE 10 15 1019.7 - 0.0 - - 10 - - - -
31/02:30pm 19.1 SE 10 14 1019.6 - 0.0 - - 10 - - - -
31/02:00pm 19.9 SE 8 11 1019.6 - 0.0 - Partly cloudy 10 - - - -
31/01:30pm 19.5 S 9 10 1019.7 - 0.0 - Partly cloudy 10 - - - -
31/01:00pm 20.6 SW 9 13 1019.6 - 0.0 - Partly cloudy 10 - - - -
31/12:30pm 20.4 SW 10 15 1019.8 - 0.0 - - 10 - - - -
31/12:00pm 20.4 W 9 14 1019.8 - 0.0 - - 10 - - - -
31/11:30am 19.7 WNW 14 18 1020.3 - 0.0 - - 10 - - - -
31/11:00am 19.1 WNW 9 13 1020.9 - 0.0 - - 10 - - - -

Other Formats:

Comma delimited format used in spreadsheet applications
http://www.bom.gov.au/fwo/IDN60701/IDN60701.95784.axf

JavaScript Object Notation format (JSON) in row-major order
http://www.bom.gov.au/fwo/IDN60701/IDN60701.95784.json